sensor_id;sensor_type;location;lat;lon;timestamp;P1;durP1;ratioP1;P2;durP2;ratioP2
56233;SDS011;42141;53.240;6.580;2022-11-21T00:01:26;15.73;;;11.27;;
56233;SDS011;42141;53.240;6.580;2022-11-21T00:03:53;18.77;;;11.90;;
56233;SDS011;42141;53.240;6.580;2022-11-21T00:06:18;19.08;;;10.88;;
56233;SDS011;42141;53.240;6.580;2022-11-21T00:08:44;19.70;;;12.07;;
56233;SDS011;42141;53.240;6.580;2022-11-21T00:11:11;18.10;;;11.15;;
56233;SDS011;42141;53.240;6.580;2022-11-21T00:13:37;19.08;;;11.00;;
56233;SDS011;42141;53.240;6.580;2022-11-21T00:16:03;23.65;;;12.75;;
56233;SDS011;42141;53.240;6.580;2022-11-21T00:18:31;19.42;;;11.13;;
56233;SDS011;42141;53.240;6.580;2022-11-21T00:21:02;20.17;;;11.45;;
56233;SDS011;42141;53.240;6.580;2022-11-21T00:23:35;20.70;;;11.30;;
56233;SDS011;42141;53.240;6.580;2022-11-21T00:26:08;16.88;;;10.30;;
56233;SDS011;42141;53.240;6.580;2022-11-21T00:28:34;18.77;;;11.27;;
56233;SDS011;42141;53.240;6.580;2022-11-21T00:31:00;17.05;;;10.50;;
56233;SDS011;42141;53.240;6.580;2022-11-21T00:33:26;20.80;;;10.85;;
56233;SDS011;42141;53.240;6.580;2022-11-21T00:35:52;20.67;;;12.00;;
56233;SDS011;42141;53.240;6.580;2022-11-21T00:38:18;19.30;;;10.80;;
56233;SDS011;42141;53.240;6.580;2022-11-21T00:40:43;18.63;;;12.30;;
56233;SDS011;42141;53.240;6.580;2022-11-21T00:43:09;20.92;;;11.40;;
56233;SDS011;42141;53.240;6.580;2022-11-21T00:45:35;21.63;;;12.38;;
56233;SDS011;42141;53.240;6.580;2022-11-21T00:48:01;24.20;;;12.05;;
56233;SDS011;42141;53.240;6.580;2022-11-21T00:50:26;18.67;;;11.60;;
56233;SDS011;42141;53.240;6.580;2022-11-21T00:52:55;24.55;;;12.80;;
56233;SDS011;42141;53.240;6.580;2022-11-21T00:55:22;23.67;;;13.25;;
56233;SDS011;42141;53.240;6.580;2022-11-21T00:57:49;25.85;;;13.10;;
56233;SDS011;42141;53.240;6.580;2022-11-21T01:00:15;27.48;;;13.68;;
56233;SDS011;42141;53.240;6.580;2022-11-21T01:02:42;22.27;;;13.00;;
56233;SDS011;42141;53.240;6.580;2022-11-21T01:05:08;23.88;;;12.98;;
56233;SDS011;42141;53.240;6.580;2022-11-21T01:07:34;21.80;;;12.00;;
56233;SDS011;42141;53.240;6.580;2022-11-21T01:10:00;17.02;;;10.40;;
56233;SDS011;42141;53.240;6.580;2022-11-21T01:12:25;18.10;;;11.20;;
56233;SDS011;42141;53.240;6.580;2022-11-21T01:14:51;20.60;;;12.07;;
56233;SDS011;42141;53.240;6.580;2022-11-21T01:17:17;25.35;;;13.10;;
56233;SDS011;42141;53.240;6.580;2022-11-21T01:19:43;24.70;;;12.60;;
56233;SDS011;42141;53.240;6.580;2022-11-21T01:22:09;24.25;;;13.18;;
56233;SDS011;42141;53.240;6.580;2022-11-21T01:24:34;21.80;;;12.13;;
56233;SDS011;42141;53.240;6.580;2022-11-21T01:27:00;24.08;;;13.43;;
56233;SDS011;42141;53.240;6.580;2022-11-21T01:29:26;22.27;;;11.73;;
56233;SDS011;42141;53.240;6.580;2022-11-21T01:31:52;21.33;;;12.30;;
56233;SDS011;42141;53.240;6.580;2022-11-21T01:34:17;20.92;;;12.43;;
56233;SDS011;42141;53.240;6.580;2022-11-21T01:36:43;18.17;;;12.02;;
56233;SDS011;42141;53.240;6.580;2022-11-21T01:39:09;22.75;;;11.63;;
56233;SDS011;42141;53.240;6.580;2022-11-21T01:41:36;26.65;;;12.50;;
56233;SDS011;42141;53.240;6.580;2022-11-21T01:46:41;21.55;;;11.65;;
56233;SDS011;42141;53.240;6.580;2022-11-21T01:49:08;22.85;;;12.40;;
56233;SDS011;42141;53.240;6.580;2022-11-21T01:57:06;23.88;;;11.88;;
56233;SDS011;42141;53.240;6.580;2022-11-21T01:59:40;19.00;;;11.20;;
56233;SDS011;42141;53.240;6.580;2022-11-21T02:02:14;18.85;;;11.63;;
56233;SDS011;42141;53.240;6.580;2022-11-21T02:04:44;20.48;;;11.82;;
56233;SDS011;42141;53.240;6.580;2022-11-21T02:07:12;18.52;;;11.23;;
56233;SDS011;42141;53.240;6.580;2022-11-21T02:09:41;20.27;;;11.88;;
56233;SDS011;42141;53.240;6.580;2022-11-21T02:12:24;19.85;;;12.23;;
56233;SDS011;42141;53.240;6.580;2022-11-21T02:14:54;21.30;;;12.85;;
56233;SDS011;42141;53.240;6.580;2022-11-21T02:17:20;22.08;;;12.35;;
56233;SDS011;42141;53.240;6.580;2022-11-21T02:19:49;23.95;;;12.65;;
56233;SDS011;42141;53.240;6.580;2022-11-21T02:22:27;20.80;;;12.30;;
56233;SDS011;42141;53.240;6.580;2022-11-21T02:27:32;25.38;;;14.02;;
56233;SDS011;42141;53.240;6.580;2022-11-21T02:29:58;22.05;;;12.48;;
56233;SDS011;42141;53.240;6.580;2022-11-21T02:32:34;24.45;;;13.45;;
56233;SDS011;42141;53.240;6.580;2022-11-21T02:35:13;22.85;;;12.98;;
56233;SDS011;42141;53.240;6.580;2022-11-21T02:37:40;24.50;;;14.57;;
56233;SDS011;42141;53.240;6.580;2022-11-21T02:40:07;24.35;;;13.50;;
56233;SDS011;42141;53.240;6.580;2022-11-21T02:42:38;26.48;;;14.02;;
56233;SDS011;42141;53.240;6.580;2022-11-21T02:45:20;23.33;;;14.13;;
56233;SDS011;42141;53.240;6.580;2022-11-21T02:47:52;25.15;;;13.18;;
56233;SDS011;42141;53.240;6.580;2022-11-21T02:50:22;21.67;;;13.50;;
56233;SDS011;42141;53.240;6.580;2022-11-21T02:52:52;25.08;;;15.00;;
56233;SDS011;42141;53.240;6.580;2022-11-21T02:55:17;23.25;;;13.68;;
56233;SDS011;42141;53.240;6.580;2022-11-21T02:57:43;23.55;;;13.30;;
56233;SDS011;42141;53.240;6.580;2022-11-21T03:00:09;23.70;;;14.27;;
56233;SDS011;42141;53.240;6.580;2022-11-21T03:02:35;27.20;;;14.85;;
56233;SDS011;42141;53.240;6.580;2022-11-21T03:05:02;23.55;;;13.63;;
56233;SDS011;42141;53.240;6.580;2022-11-21T03:07:30;29.17;;;15.20;;
56233;SDS011;42141;53.240;6.580;2022-11-21T03:09:56;21.60;;;13.07;;
56233;SDS011;42141;53.240;6.580;2022-11-21T03:12:22;28.98;;;15.73;;
56233;SDS011;42141;53.240;6.580;2022-11-21T03:14:48;26.27;;;15.65;;
56233;SDS011;42141;53.240;6.580;2022-11-21T03:17:13;22.63;;;13.65;;
56233;SDS011;42141;53.240;6.580;2022-11-21T03:19:39;29.48;;;15.40;;
56233;SDS011;42141;53.240;6.580;2022-11-21T03:22:05;24.70;;;14.38;;
56233;SDS011;42141;53.240;6.580;2022-11-21T03:24:30;28.27;;;14.70;;
56233;SDS011;42141;53.240;6.580;2022-11-21T03:26:56;30.00;;;15.48;;
56233;SDS011;42141;53.240;6.580;2022-11-21T03:29:23;26.38;;;15.45;;
56233;SDS011;42141;53.240;6.580;2022-11-21T03:31:49;24.83;;;14.65;;
56233;SDS011;42141;53.240;6.580;2022-11-21T03:34:14;24.77;;;14.85;;
56233;SDS011;42141;53.240;6.580;2022-11-21T03:36:40;24.33;;;15.23;;
56233;SDS011;42141;53.240;6.580;2022-11-21T03:39:06;27.77;;;15.48;;
56233;SDS011;42141;53.240;6.580;2022-11-21T03:41:32;30.08;;;17.48;;
56233;SDS011;42141;53.240;6.580;2022-11-21T03:46:28;30.00;;;16.80;;
56233;SDS011;42141;53.240;6.580;2022-11-21T03:48:55;27.38;;;15.82;;
56233;SDS011;42141;53.240;6.580;2022-11-21T03:51:21;26.70;;;15.57;;
56233;SDS011;42141;53.240;6.580;2022-11-21T03:53:47;26.00;;;14.95;;
56233;SDS011;42141;53.240;6.580;2022-11-21T03:56:13;23.75;;;14.05;;
56233;SDS011;42141;53.240;6.580;2022-11-21T03:58:39;25.13;;;14.65;;
56233;SDS011;42141;53.240;6.580;2022-11-21T04:01:05;29.25;;;16.63;;
56233;SDS011;42141;53.240;6.580;2022-11-21T04:03:31;22.52;;;13.27;;
56233;SDS011;42141;53.240;6.580;2022-11-21T04:05:57;24.25;;;14.13;;
56233;SDS011;42141;53.240;6.580;2022-11-21T04:08:22;30.08;;;15.57;;
56233;SDS011;42141;53.240;6.580;2022-11-21T04:10:49;23.10;;;15.30;;
56233;SDS011;42141;53.240;6.580;2022-11-21T04:13:16;25.40;;;14.93;;
56233;SDS011;42141;53.240;6.580;2022-11-21T04:15:42;27.70;;;15.43;;
56233;SDS011;42141;53.240;6.580;2022-11-21T04:18:09;26.83;;;15.48;;
56233;SDS011;42141;53.240;6.580;2022-11-21T04:20:35;29.42;;;16.95;;
56233;SDS011;42141;53.240;6.580;2022-11-21T04:23:01;27.25;;;14.60;;
56233;SDS011;42141;53.240;6.580;2022-11-21T04:25:27;27.48;;;15.38;;
56233;SDS011;42141;53.240;6.580;2022-11-21T04:27:56;25.88;;;15.50;;
56233;SDS011;42141;53.240;6.580;2022-11-21T04:30:23;26.35;;;15.70;;
56233;SDS011;42141;53.240;6.580;2022-11-21T04:32:49;29.10;;;15.57;;
56233;SDS011;42141;53.240;6.580;2022-11-21T04:35:15;24.17;;;15.32;;
56233;SDS011;42141;53.240;6.580;2022-11-21T04:37:41;26.65;;;15.35;;
56233;SDS011;42141;53.240;6.580;2022-11-21T04:40:08;26.02;;;15.30;;
56233;SDS011;42141;53.240;6.580;2022-11-21T04:42:34;24.38;;;14.93;;
56233;SDS011;42141;53.240;6.580;2022-11-21T04:44:59;25.70;;;15.32;;
56233;SDS011;42141;53.240;6.580;2022-11-21T04:47:25;25.13;;;14.48;;
56233;SDS011;42141;53.240;6.580;2022-11-21T04:49:51;26.40;;;14.23;;
56233;SDS011;42141;53.240;6.580;2022-11-21T04:52:17;24.48;;;14.70;;
56233;SDS011;42141;53.240;6.580;2022-11-21T04:54:43;24.08;;;14.73;;
56233;SDS011;42141;53.240;6.580;2022-11-21T04:57:08;23.98;;;14.65;;
56233;SDS011;42141;53.240;6.580;2022-11-21T04:59:34;22.23;;;13.68;;
56233;SDS011;42141;53.240;6.580;2022-11-21T05:02:01;24.27;;;13.85;;
56233;SDS011;42141;53.240;6.580;2022-11-21T05:04:27;25.48;;;14.48;;
56233;SDS011;42141;53.240;6.580;2022-11-21T05:06:53;23.73;;;14.65;;
56233;SDS011;42141;53.240;6.580;2022-11-21T05:09:19;25.50;;;14.20;;
56233;SDS011;42141;53.240;6.580;2022-11-21T05:11:44;22.15;;;13.80;;
56233;SDS011;42141;53.240;6.580;2022-11-21T05:14:28;24.98;;;12.88;;
56233;SDS011;42141;53.240;6.580;2022-11-21T05:16:54;22.08;;;13.05;;
56233;SDS011;42141;53.240;6.580;2022-11-21T05:19:20;20.80;;;12.38;;
56233;SDS011;42141;53.240;6.580;2022-11-21T05:21:45;24.20;;;13.90;;
56233;SDS011;42141;53.240;6.580;2022-11-21T05:24:11;25.77;;;14.00;;
56233;SDS011;42141;53.240;6.580;2022-11-21T05:26:36;22.77;;;12.70;;
56233;SDS011;42141;53.240;6.580;2022-11-21T05:29:02;23.40;;;13.10;;
56233;SDS011;42141;53.240;6.580;2022-11-21T05:31:28;21.20;;;12.80;;
56233;SDS011;42141;53.240;6.580;2022-11-21T05:33:54;23.30;;;12.55;;
56233;SDS011;42141;53.240;6.580;2022-11-21T05:36:20;23.40;;;12.95;;
56233;SDS011;42141;53.240;6.580;2022-11-21T05:38:46;21.73;;;12.55;;
56233;SDS011;42141;53.240;6.580;2022-11-21T05:41:11;21.52;;;12.20;;
56233;SDS011;42141;53.240;6.580;2022-11-21T05:43:37;23.85;;;13.05;;
56233;SDS011;42141;53.240;6.580;2022-11-21T05:46:13;24.20;;;14.15;;
56233;SDS011;42141;53.240;6.580;2022-11-21T05:48:43;22.58;;;12.57;;
56233;SDS011;42141;53.240;6.580;2022-11-21T05:51:10;20.65;;;13.10;;
56233;SDS011;42141;53.240;6.580;2022-11-21T05:53:36;24.65;;;13.10;;
56233;SDS011;42141;53.240;6.580;2022-11-21T05:56:05;22.83;;;13.10;;
56233;SDS011;42141;53.240;6.580;2022-11-21T05:58:33;24.83;;;12.77;;
56233;SDS011;42141;53.240;6.580;2022-11-21T06:00:59;23.10;;;13.60;;
56233;SDS011;42141;53.240;6.580;2022-11-21T06:03:26;19.88;;;12.35;;
56233;SDS011;42141;53.240;6.580;2022-11-21T06:06:07;22.25;;;12.95;;
56233;SDS011;42141;53.240;6.580;2022-11-21T06:08:34;19.58;;;12.07;;
56233;SDS011;42141;53.240;6.580;2022-11-21T06:11:02;19.42;;;11.35;;
56233;SDS011;42141;53.240;6.580;2022-11-21T06:13:29;22.58;;;12.50;;
56233;SDS011;42141;53.240;6.580;2022-11-21T06:16:02;25.23;;;14.40;;
56233;SDS011;42141;53.240;6.580;2022-11-21T06:18:39;18.67;;;10.38;;
56233;SDS011;42141;53.240;6.580;2022-11-21T06:21:07;23.83;;;13.70;;
56233;SDS011;42141;53.240;6.580;2022-11-21T06:23:38;28.98;;;13.27;;
56233;SDS011;42141;53.240;6.580;2022-11-21T06:26:05;25.33;;;13.38;;
56233;SDS011;42141;53.240;6.580;2022-11-21T06:28:33;22.27;;;14.10;;
56233;SDS011;42141;53.240;6.580;2022-11-21T06:33:31;39.88;;;20.20;;
56233;SDS011;42141;53.240;6.580;2022-11-21T06:36:00;26.08;;;16.35;;
56233;SDS011;42141;53.240;6.580;2022-11-21T06:38:26;25.98;;;13.30;;
56233;SDS011;42141;53.240;6.580;2022-11-21T06:40:52;24.00;;;13.77;;
56233;SDS011;42141;53.240;6.580;2022-11-21T06:43:17;22.33;;;13.23;;
56233;SDS011;42141;53.240;6.580;2022-11-21T06:45:43;26.02;;;14.35;;
56233;SDS011;42141;53.240;6.580;2022-11-21T06:48:09;27.02;;;14.00;;
56233;SDS011;42141;53.240;6.580;2022-11-21T06:50:35;28.83;;;15.75;;
56233;SDS011;42141;53.240;6.580;2022-11-21T06:53:02;28.95;;;16.00;;
56233;SDS011;42141;53.240;6.580;2022-11-21T06:55:29;35.60;;;17.42;;
56233;SDS011;42141;53.240;6.580;2022-11-21T06:57:58;30.15;;;15.68;;
56233;SDS011;42141;53.240;6.580;2022-11-21T07:00:27;31.70;;;16.35;;
56233;SDS011;42141;53.240;6.580;2022-11-21T07:02:54;31.02;;;16.80;;
56233;SDS011;42141;53.240;6.580;2022-11-21T07:05:23;32.40;;;16.45;;
56233;SDS011;42141;53.240;6.580;2022-11-21T07:07:49;30.27;;;17.52;;
56233;SDS011;42141;53.240;6.580;2022-11-21T07:10:15;32.25;;;17.63;;
56233;SDS011;42141;53.240;6.580;2022-11-21T07:12:40;29.83;;;16.77;;
56233;SDS011;42141;53.240;6.580;2022-11-21T07:15:25;29.40;;;16.27;;
56233;SDS011;42141;53.240;6.580;2022-11-21T07:17:50;33.53;;;18.00;;
56233;SDS011;42141;53.240;6.580;2022-11-21T07:20:16;29.75;;;17.20;;
56233;SDS011;42141;53.240;6.580;2022-11-21T07:22:42;27.92;;;16.00;;
56233;SDS011;42141;53.240;6.580;2022-11-21T07:25:07;31.30;;;16.77;;
56233;SDS011;42141;53.240;6.580;2022-11-21T07:27:33;28.67;;;16.85;;
56233;SDS011;42141;53.240;6.580;2022-11-21T07:29:59;33.17;;;17.15;;
56233;SDS011;42141;53.240;6.580;2022-11-21T07:32:24;29.67;;;16.25;;
56233;SDS011;42141;53.240;6.580;2022-11-21T07:34:50;32.60;;;16.73;;
56233;SDS011;42141;53.240;6.580;2022-11-21T07:37:16;35.05;;;18.77;;
56233;SDS011;42141;53.240;6.580;2022-11-21T07:39:42;39.25;;;20.48;;
56233;SDS011;42141;53.240;6.580;2022-11-21T07:42:07;42.75;;;20.23;;
56233;SDS011;42141;53.240;6.580;2022-11-21T07:44:33;38.25;;;19.48;;
56233;SDS011;42141;53.240;6.580;2022-11-21T07:46:59;43.95;;;20.85;;
56233;SDS011;42141;53.240;6.580;2022-11-21T07:49:24;35.95;;;18.35;;
56233;SDS011;42141;53.240;6.580;2022-11-21T07:51:50;37.17;;;19.27;;
56233;SDS011;42141;53.240;6.580;2022-11-21T07:54:16;37.85;;;19.45;;
56233;SDS011;42141;53.240;6.580;2022-11-21T07:56:41;36.10;;;19.42;;
56233;SDS011;42141;53.240;6.580;2022-11-21T07:59:07;37.08;;;19.30;;
56233;SDS011;42141;53.240;6.580;2022-11-21T08:01:33;37.30;;;20.50;;
56233;SDS011;42141;53.240;6.580;2022-11-21T08:03:58;37.67;;;19.88;;
56233;SDS011;42141;53.240;6.580;2022-11-21T08:06:24;37.08;;;19.55;;
56233;SDS011;42141;53.240;6.580;2022-11-21T08:08:53;39.88;;;21.00;;
56233;SDS011;42141;53.240;6.580;2022-11-21T08:11:19;40.58;;;20.15;;
56233;SDS011;42141;53.240;6.580;2022-11-21T08:13:45;37.85;;;20.85;;
56233;SDS011;42141;53.240;6.580;2022-11-21T08:16:10;37.78;;;19.92;;
56233;SDS011;42141;53.240;6.580;2022-11-21T08:18:36;43.00;;;21.40;;
56233;SDS011;42141;53.240;6.580;2022-11-21T08:21:02;38.42;;;21.27;;
56233;SDS011;42141;53.240;6.580;2022-11-21T08:23:29;46.22;;;21.77;;
56233;SDS011;42141;53.240;6.580;2022-11-21T08:25:55;34.70;;;21.00;;
56233;SDS011;42141;53.240;6.580;2022-11-21T08:28:21;35.17;;;20.65;;
56233;SDS011;42141;53.240;6.580;2022-11-21T08:30:47;39.42;;;21.17;;
56233;SDS011;42141;53.240;6.580;2022-11-21T08:33:12;38.95;;;19.02;;
56233;SDS011;42141;53.240;6.580;2022-11-21T08:35:38;34.55;;;20.52;;
56233;SDS011;42141;53.240;6.580;2022-11-21T08:38:06;34.00;;;19.60;;
56233;SDS011;42141;53.240;6.580;2022-11-21T08:40:32;34.58;;;18.80;;
56233;SDS011;42141;53.240;6.580;2022-11-21T08:43:00;31.52;;;17.55;;
56233;SDS011;42141;53.240;6.580;2022-11-21T08:45:31;39.10;;;20.05;;
56233;SDS011;42141;53.240;6.580;2022-11-21T08:47:58;31.90;;;19.73;;
56233;SDS011;42141;53.240;6.580;2022-11-21T08:50:24;33.50;;;18.80;;
56233;SDS011;42141;53.240;6.580;2022-11-21T08:52:50;33.00;;;18.85;;
56233;SDS011;42141;53.240;6.580;2022-11-21T08:55:16;32.00;;;17.90;;
56233;SDS011;42141;53.240;6.580;2022-11-21T08:57:42;31.08;;;17.92;;
56233;SDS011;42141;53.240;6.580;2022-11-21T09:00:08;31.52;;;19.85;;
56233;SDS011;42141;53.240;6.580;2022-11-21T09:02:37;34.50;;;19.35;;
56233;SDS011;42141;53.240;6.580;2022-11-21T09:05:03;29.55;;;17.60;;
56233;SDS011;42141;53.240;6.580;2022-11-21T09:07:28;30.73;;;17.45;;
56233;SDS011;42141;53.240;6.580;2022-11-21T09:09:54;29.90;;;17.95;;
56233;SDS011;42141;53.240;6.580;2022-11-21T09:12:20;30.55;;;18.25;;
56233;SDS011;42141;53.240;6.580;2022-11-21T09:14:45;26.80;;;16.75;;
56233;SDS011;42141;53.240;6.580;2022-11-21T09:17:30;28.33;;;16.25;;
56233;SDS011;42141;53.240;6.580;2022-11-21T09:20:14;28.63;;;16.23;;
56233;SDS011;42141;53.240;6.580;2022-11-21T09:22:39;25.60;;;16.15;;
56233;SDS011;42141;53.240;6.580;2022-11-21T09:25:05;31.30;;;16.65;;
56233;SDS011;42141;53.240;6.580;2022-11-21T09:27:31;31.50;;;17.35;;
56233;SDS011;42141;53.240;6.580;2022-11-21T09:29:56;24.25;;;15.82;;
56233;SDS011;42141;53.240;6.580;2022-11-21T09:32:22;27.85;;;16.27;;
56233;SDS011;42141;53.240;6.580;2022-11-21T09:34:48;32.78;;;18.10;;
56233;SDS011;42141;53.240;6.580;2022-11-21T09:37:14;30.00;;;15.45;;
56233;SDS011;42141;53.240;6.580;2022-11-21T09:39:39;28.85;;;16.27;;
56233;SDS011;42141;53.240;6.580;2022-11-21T09:45:08;26.88;;;15.52;;
56233;SDS011;42141;53.240;6.580;2022-11-21T09:47:50;24.40;;;15.57;;
56233;SDS011;42141;53.240;6.580;2022-11-21T09:50:23;27.52;;;15.70;;
56233;SDS011;42141;53.240;6.580;2022-11-21T09:55:39;23.55;;;14.27;;
56233;SDS011;42141;53.240;6.580;2022-11-21T10:00:53;27.33;;;14.35;;
56233;SDS011;42141;53.240;6.580;2022-11-21T10:03:20;26.88;;;15.10;;
56233;SDS011;42141;53.240;6.580;2022-11-21T10:05:57;27.10;;;15.57;;
56233;SDS011;42141;53.240;6.580;2022-11-21T10:14:05;28.70;;;16.35;;
56233;SDS011;42141;53.240;6.580;2022-11-21T10:16:59;24.88;;;16.00;;
56233;SDS011;42141;53.240;6.580;2022-11-21T10:20:12;29.92;;;15.35;;
56233;SDS011;42141;53.240;6.580;2022-11-21T10:25:23;23.98;;;14.65;;
56233;SDS011;42141;53.240;6.580;2022-11-21T10:27:53;26.23;;;15.63;;
56233;SDS011;42141;53.240;6.580;2022-11-21T10:30:29;25.42;;;15.23;;
56233;SDS011;42141;53.240;6.580;2022-11-21T10:32:56;21.77;;;14.38;;
56233;SDS011;42141;53.240;6.580;2022-11-21T10:35:36;21.85;;;13.48;;
56233;SDS011;42141;53.240;6.580;2022-11-21T10:38:19;23.67;;;14.57;;
56233;SDS011;42141;53.240;6.580;2022-11-21T10:40:51;23.15;;;15.13;;
56233;SDS011;42141;53.240;6.580;2022-11-21T10:43:35;22.88;;;14.57;;
56233;SDS011;42141;53.240;6.580;2022-11-21T10:46:25;25.02;;;14.80;;
56233;SDS011;42141;53.240;6.580;2022-11-21T10:48:55;22.30;;;13.95;;
56233;SDS011;42141;53.240;6.580;2022-11-21T10:54:09;21.98;;;15.95;;
56233;SDS011;42141;53.240;6.580;2022-11-21T10:57:16;24.88;;;14.98;;
56233;SDS011;42141;53.240;6.580;2022-11-21T11:00:12;20.90;;;13.55;;
56233;SDS011;42141;53.240;6.580;2022-11-21T11:02:42;25.10;;;12.98;;
56233;SDS011;42141;53.240;6.580;2022-11-21T11:05:28;23.90;;;14.60;;
56233;SDS011;42141;53.240;6.580;2022-11-21T11:10:37;26.33;;;15.23;;
56233;SDS011;42141;53.240;6.580;2022-11-21T11:13:11;31.10;;;14.27;;
56233;SDS011;42141;53.240;6.580;2022-11-21T11:18:55;20.83;;;12.60;;
56233;SDS011;42141;53.240;6.580;2022-11-21T11:21:24;22.52;;;12.40;;
56233;SDS011;42141;53.240;6.580;2022-11-21T11:23:52;20.15;;;10.63;;
56233;SDS011;42141;53.240;6.580;2022-11-21T11:26:30;18.70;;;11.43;;
56233;SDS011;42141;53.240;6.580;2022-11-21T11:31:42;19.42;;;11.35;;
56233;SDS011;42141;53.240;6.580;2022-11-21T11:34:13;15.82;;;8.60;;
56233;SDS011;42141;53.240;6.580;2022-11-21T11:36:43;15.30;;;10.00;;
56233;SDS011;42141;53.240;6.580;2022-11-21T11:42:17;12.02;;;7.72;;
56233;SDS011;42141;53.240;6.580;2022-11-21T11:48:00;10.63;;;7.13;;
56233;SDS011;42141;53.240;6.580;2022-11-21T11:50:41;14.43;;;7.43;;
56233;SDS011;42141;53.240;6.580;2022-11-21T11:53:16;11.77;;;7.25;;
56233;SDS011;42141;53.240;6.580;2022-11-21T11:55:55;11.45;;;6.95;;
56233;SDS011;42141;53.240;6.580;2022-11-21T12:03:35;10.52;;;6.82;;
56233;SDS011;42141;53.240;6.580;2022-11-21T12:06:19;10.77;;;6.53;;
56233;SDS011;42141;53.240;6.580;2022-11-21T12:23:20;11.55;;;6.93;;
56233;SDS011;42141;53.240;6.580;2022-11-21T12:29:00;9.90;;;6.90;;
56233;SDS011;42141;53.240;6.580;2022-11-21T12:46:05;14.38;;;8.23;;
56233;SDS011;42141;53.240;6.580;2022-11-21T12:51:50;16.05;;;9.68;;
56233;SDS011;42141;53.240;6.580;2022-11-21T12:54:54;15.95;;;9.90;;
56233;SDS011;42141;53.240;6.580;2022-11-21T12:57:42;14.50;;;9.80;;
56233;SDS011;42141;53.240;6.580;2022-11-21T13:00:27;16.08;;;9.65;;
56233;SDS011;42141;53.240;6.580;2022-11-21T13:06:03;18.88;;;10.95;;
56233;SDS011;42141;53.240;6.580;2022-11-21T13:08:36;17.92;;;11.05;;
56233;SDS011;42141;53.240;6.580;2022-11-21T13:17:15;20.67;;;12.93;;
56233;SDS011;42141;53.240;6.580;2022-11-21T13:22:49;21.60;;;11.80;;
56233;SDS011;42141;53.240;6.580;2022-11-21T13:25:36;21.10;;;12.90;;
56233;SDS011;42141;53.240;6.580;2022-11-21T13:33:50;21.33;;;12.95;;
56233;SDS011;42141;53.240;6.580;2022-11-21T14:00:47;17.25;;;10.18;;
56233;SDS011;42141;53.240;6.580;2022-11-21T14:03:41;14.95;;;9.88;;
56233;SDS011;42141;53.240;6.580;2022-11-21T14:06:35;14.80;;;9.27;;
56233;SDS011;42141;53.240;6.580;2022-11-21T14:09:13;18.30;;;10.48;;
56233;SDS011;42141;53.240;6.580;2022-11-21T14:14:33;13.82;;;9.23;;
56233;SDS011;42141;53.240;6.580;2022-11-21T14:19:51;15.85;;;10.10;;
56233;SDS011;42141;53.240;6.580;2022-11-21T14:22:27;14.85;;;9.93;;
56233;SDS011;42141;53.240;6.580;2022-11-21T14:24:59;17.13;;;10.55;;
56233;SDS011;42141;53.240;6.580;2022-11-21T14:27:30;16.17;;;10.00;;
56233;SDS011;42141;53.240;6.580;2022-11-21T14:29:57;14.77;;;9.95;;
56233;SDS011;42141;53.240;6.580;2022-11-21T14:32:29;16.98;;;10.40;;
56233;SDS011;42141;53.240;6.580;2022-11-21T14:35:08;14.25;;;9.65;;
56233;SDS011;42141;53.240;6.580;2022-11-21T14:37:38;17.60;;;10.82;;
56233;SDS011;42141;53.240;6.580;2022-11-21T14:40:08;16.85;;;10.02;;
56233;SDS011;42141;53.240;6.580;2022-11-21T14:42:36;18.20;;;11.10;;
56233;SDS011;42141;53.240;6.580;2022-11-21T14:45:05;18.40;;;10.57;;
56233;SDS011;42141;53.240;6.580;2022-11-21T14:47:47;17.73;;;9.82;;
56233;SDS011;42141;53.240;6.580;2022-11-21T14:50:27;18.92;;;11.35;;
56233;SDS011;42141;53.240;6.580;2022-11-21T14:52:54;17.48;;;11.60;;
56233;SDS011;42141;53.240;6.580;2022-11-21T14:55:27;20.52;;;11.50;;
56233;SDS011;42141;53.240;6.580;2022-11-21T14:57:55;18.98;;;11.80;;
56233;SDS011;42141;53.240;6.580;2022-11-21T15:00:24;19.70;;;12.07;;
56233;SDS011;42141;53.240;6.580;2022-11-21T15:02:52;17.70;;;12.07;;
56233;SDS011;42141;53.240;6.580;2022-11-21T15:05:20;23.10;;;12.63;;
56233;SDS011;42141;53.240;6.580;2022-11-21T15:07:47;18.95;;;11.73;;
56233;SDS011;42141;53.240;6.580;2022-11-21T15:10:14;21.23;;;12.68;;
56233;SDS011;42141;53.240;6.580;2022-11-21T15:18:02;20.92;;;12.23;;
56233;SDS011;42141;53.240;6.580;2022-11-21T15:20:30;25.48;;;14.15;;
56233;SDS011;42141;53.240;6.580;2022-11-21T15:22:57;24.88;;;14.05;;
56233;SDS011;42141;53.240;6.580;2022-11-21T15:25:29;23.63;;;14.70;;
56233;SDS011;42141;53.240;6.580;2022-11-21T15:28:07;29.63;;;16.55;;
56233;SDS011;42141;53.240;6.580;2022-11-21T15:30:39;27.67;;;14.57;;
56233;SDS011;42141;53.240;6.580;2022-11-21T15:35:39;28.92;;;15.75;;
56233;SDS011;42141;53.240;6.580;2022-11-21T15:43:36;25.38;;;16.20;;
56233;SDS011;42141;53.240;6.580;2022-11-21T15:54:03;31.35;;;17.70;;
56233;SDS011;42141;53.240;6.580;2022-11-21T15:56:30;30.85;;;17.90;;
56233;SDS011;42141;53.240;6.580;2022-11-21T15:58:56;34.40;;;18.15;;
56233;SDS011;42141;53.240;6.580;2022-11-21T16:01:23;32.30;;;18.48;;
56233;SDS011;42141;53.240;6.580;2022-11-21T16:03:50;40.85;;;20.33;;
56233;SDS011;42141;53.240;6.580;2022-11-21T16:06:18;36.83;;;20.38;;
56233;SDS011;42141;53.240;6.580;2022-11-21T16:08:44;38.55;;;21.23;;
56233;SDS011;42141;53.240;6.580;2022-11-21T16:11:13;40.75;;;20.45;;
56233;SDS011;42141;53.240;6.580;2022-11-21T16:13:48;47.05;;;20.42;;
56233;SDS011;42141;53.240;6.580;2022-11-21T16:16:14;43.25;;;22.42;;
56233;SDS011;42141;53.240;6.580;2022-11-21T16:18:40;41.47;;;20.20;;
56233;SDS011;42141;53.240;6.580;2022-11-21T16:21:06;41.10;;;21.85;;
56233;SDS011;42141;53.240;6.580;2022-11-21T16:23:33;44.50;;;21.90;;
56233;SDS011;42141;53.240;6.580;2022-11-21T16:25:58;44.00;;;22.50;;
56233;SDS011;42141;53.240;6.580;2022-11-21T16:28:24;45.38;;;23.10;;
56233;SDS011;42141;53.240;6.580;2022-11-21T16:30:50;42.90;;;20.90;;
56233;SDS011;42141;53.240;6.580;2022-11-21T16:33:16;45.80;;;22.00;;
56233;SDS011;42141;53.240;6.580;2022-11-21T16:35:42;43.40;;;22.38;;
56233;SDS011;42141;53.240;6.580;2022-11-21T16:38:08;55.30;;;22.05;;
56233;SDS011;42141;53.240;6.580;2022-11-21T16:40:35;55.83;;;23.30;;
56233;SDS011;42141;53.240;6.580;2022-11-21T16:43:08;48.13;;;21.88;;
56233;SDS011;42141;53.240;6.580;2022-11-21T16:45:35;50.45;;;22.30;;
56233;SDS011;42141;53.240;6.580;2022-11-21T16:48:02;53.15;;;22.90;;
56233;SDS011;42141;53.240;6.580;2022-11-21T16:50:31;56.70;;;22.92;;
56233;SDS011;42141;53.240;6.580;2022-11-21T16:52:57;50.22;;;22.98;;
56233;SDS011;42141;53.240;6.580;2022-11-21T16:55:23;49.00;;;23.17;;
56233;SDS011;42141;53.240;6.580;2022-11-21T16:57:49;57.00;;;24.80;;
56233;SDS011;42141;53.240;6.580;2022-11-21T17:00:14;56.53;;;24.60;;
56233;SDS011;42141;53.240;6.580;2022-11-21T17:02:41;58.88;;;23.08;;
56233;SDS011;42141;53.240;6.580;2022-11-21T17:05:06;51.58;;;24.05;;
56233;SDS011;42141;53.240;6.580;2022-11-21T17:07:32;47.40;;;21.38;;
56233;SDS011;42141;53.240;6.580;2022-11-21T17:09:58;62.33;;;24.27;;
56233;SDS011;42141;53.240;6.580;2022-11-21T17:12:24;61.00;;;23.58;;
56233;SDS011;42141;53.240;6.580;2022-11-21T17:14:50;58.88;;;24.08;;